Time;durP1;ratioP1;P1;durP2;ratioP2;P2;SDS_P1;SDS_P2;PMS_P1;PMS_P2;Temp;Humidity;BMP_temperature;BMP_pressure;BME280_temperature;BME280_humidity;BME280_pressure;Samples;Min_cycle;Max_cycle;Signal;HPM_P1;HPM_P2
2023/04/30 00:03:39;;;;;;;12.38;8.60;;;;;;;11.44;100.00;100220.91;12200087;19;20019;-82
2023/04/30 00:07:41;;;;;;;13.80;9.10;;;;;;;11.41;100.00;100217.56;12179982;19;20026;-82
2023/04/30 00:11:43;;;;;;;11.05;7.20;;;;;;;11.42;100.00;100221.16;12194636;19;20737;-83
2023/04/30 00:15:45;;;;;;;13.63;8.38;;;;;;;11.35;100.00;100221.31;12197924;19;20463;-82
2023/04/30 00:19:46;;;;;;;14.10;9.02;;;;;;;11.34;100.00;100227.09;12178530;19;20408;-83
2023/04/30 00:23:48;;;;;;;13.88;8.93;;;;;;;11.34;100.00;100230.66;12204573;19;20010;-84
2023/04/30 00:27:50;;;;;;;14.50;7.93;;;;;;;11.32;100.00;100229.25;12207307;19;20070;-82
2023/04/30 00:31:54;;;;;;;15.23;8.07;;;;;;;11.32;100.00;100226.47;12188817;19;20806;-84
2023/04/30 06:56:36;;;;;;;12.20;7.63;;;;;;;12.19;100.00;100280.63;12198621;19;20011;-82
2023/04/30 07:00:41;;;;;;;11.75;8.35;;;;;;;12.38;100.00;100282.06;12206589;19;20433;-81
2023/04/30 07:04:44;;;;;;;10.52;6.97;;;;;;;12.52;98.69;100274.28;12194808;19;20841;-84
2023/04/30 07:08:47;;;;;;;11.60;7.40;;;;;;;12.78;98.80;100276.34;12215647;19;20014;-82
2023/04/30 07:12:49;;;;;;;10.60;6.43;;;;;;;12.99;96.71;100279.44;12217252;19;20034;-85
2023/04/30 07:16:53;;;;;;;10.25;6.10;;;;;;;13.14;94.01;100281.56;12191221;19;20010;-83
2023/04/30 07:20:55;;;;;;;9.90;5.82;;;;;;;13.34;89.46;100281.06;12212709;19;20085;-83
2023/04/30 07:24:59;;;;;;;9.65;5.88;;;;;;;13.42;88.67;100272.31;12214915;19;20002;-84
2023/04/30 07:29:02;;;;;;;9.15;5.30;;;;;;;13.52;88.91;100280.72;12195586;19;20006;-81
2023/04/30 07:33:07;;;;;;;7.95;5.35;;;;;;;13.71;86.88;100277.63;12204587;19;20496;-82
2023/04/30 07:37:10;;;;;;;9.55;5.80;;;;;;;13.89;86.14;100280.03;12201544;19;20039;-83
2023/04/30 07:41:12;;;;;;;9.27;5.40;;;;;;;14.09;86.20;100279.44;12190910;19;20030;-83
2023/04/30 07:45:17;;;;;;;7.13;4.72;;;;;;;14.24;82.74;100285.13;12216661;19;20363;-83
2023/04/30 07:49:19;;;;;;;7.60;4.70;;;;;;;14.42;80.89;100280.28;12185088;19;20550;-82
2023/04/30 07:53:22;;;;;;;7.25;4.70;;;;;;;14.56;76.95;100273.22;12206996;19;20007;-80
2023/04/30 07:57:27;;;;;;;6.80;4.78;;;;;;;14.64;78.99;100271.91;12205436;19;20003;-81
2023/04/30 08:01:29;;;;;;;14.20;4.60;;;;;;;14.91;77.63;100274.59;12183351;19;20498;-82
2023/04/30 08:05:31;;;;;;;11.30;4.13;;;;;;;15.12;75.35;100278.34;12206103;19;20348;-81
2023/04/30 08:09:33;;;;;;;6.78;3.85;;;;;;;15.24;72.98;100284.53;12205003;19;20007;-82
2023/04/30 08:13:35;;;;;;;7.75;4.53;;;;;;;15.32;69.55;100281.25;12185179;19;20014;-84
2023/04/30 08:17:37;;;;;;;5.80;3.80;;;;;;;15.55;70.22;100287.44;12207935;19;20116;-83
2023/04/30 08:21:40;;;;;;;9.20;4.00;;;;;;;15.91;68.22;100280.09;12211169;19;20018;-84
2023/04/30 08:25:42;;;;;;;6.22;4.22;;;;;;;16.08;64.55;100279.84;12185532;19;20007;-83
2023/04/30 08:29:44;;;;;;;6.20;3.40;;;;;;;16.00;63.98;100274.84;12220723;19;20022;-82
2023/04/30 08:33:46;;;;;;;5.30;3.23;;;;;;;16.31;63.55;100272.94;12224495;19;20015;-84
2023/04/30 08:37:48;;;;;;;7.68;3.35;;;;;;;16.60;62.80;100271.28;12196336;19;20232;-82
2023/04/30 08:41:58;;;;;;;3.17;1.90;;;;;;;16.97;61.54;100259.03;12216869;19;20076;-83
2023/04/30 08:46:01;;;;;;;5.65;2.70;;;;;;;17.30;57.04;100262.28;12209548;19;20007;-84
2023/04/30 08:50:07;;;;;;;5.50;2.58;;;;;;;17.49;56.26;100260.56;12183623;19;20002;-84
2023/04/30 08:54:12;;;;;;;2.88;1.95;;;;;;;17.80;56.87;100268.78;12201955;19;20007;-85
2023/04/30 08:58:14;;;;;;;4.65;2.35;;;;;;;17.72;54.17;100253.44;12181448;19;20018;-83
2023/04/30 09:02:16;;;;;;;2.65;1.52;;;;;;;17.52;53.75;100253.56;12207105;19;20630;-84
2023/04/30 09:06:18;;;;;;;3.57;1.83;;;;;;;17.08;52.66;100246.75;12203694;19;20032;-86
2023/04/30 09:10:21;;;;;;;4.32;1.80;;;;;;;16.98;52.75;100254.28;12183613;19;20373;-82
2023/04/30 09:14:26;;;;;;;4.22;1.65;;;;;;;17.01;50.89;100245.38;12204423;19;20056;-83
2023/04/30 09:18:28;;;;;;;4.85;1.40;;;;;;;17.29;49.96;100255.06;12204584;19;20006;-82
2023/04/30 09:22:31;;;;;;;2.95;1.60;;;;;;;17.63;49.36;100254.34;12183572;19;20048;-77
2023/04/30 09:26:38;;;;;;;2.40;1.48;;;;;;;17.80;47.84;100251.25;12208893;19;20014;-81
2023/04/30 09:30:40;;;;;;;4.95;1.85;;;;;;;17.85;46.92;100245.63;12214271;19;20018;-82
2023/04/30 09:34:42;;;;;;;3.40;2.00;;;;;;;18.11;43.60;100235.97;12185728;19;20019;-82
2023/04/30 09:38:44;;;;;;;3.20;1.50;;;;;;;18.29;43.16;100231.66;12208542;19;20027;-83
2023/04/30 09:42:58;;;;;;;5.22;1.60;;;;;;;18.68;45.18;100236.34;12205973;19;20010;-82
2023/04/30 09:47:00;;;;;;;3.42;1.50;;;;;;;18.97;45.23;100229.94;12182196;19;20035;-81
2023/04/30 09:51:02;;;;;;;4.47;1.50;;;;;;;19.16;42.62;100228.06;12204479;19;20011;-81
2023/04/30 09:55:06;;;;;;;2.28;1.20;;;;;;;19.09;41.49;100220.03;12206048;19;20003;-84
2023/04/30 10:03:47;;;;;;;3.20;1.13;;;;;;;19.42;41.58;100219.34;12217592;19;20010;-82
2023/04/30 10:07:49;;;;;;;3.33;1.30;;;;;;;19.78;41.51;100208.56;12202321;19;20002;-83
2023/04/30 10:11:51;;;;;;;2.17;1.17;;;;;;;19.64;38.53;100204.84;12221739;19;20103;-82
2023/04/30 10:16:03;;;;;;;5.53;1.20;;;;;;;19.69;39.66;100199.19;12233118;19;20046;-80
2023/04/30 10:20:08;;;;;;;2.10;1.52;;;;;;;19.99;38.22;100206.31;12198177;19;20002;-82
2023/04/30 10:24:12;;;;;;;4.18;1.08;;;;;;;20.14;39.34;100194.06;12225659;19;20014;-83
2023/04/30 10:28:14;;;;;;;1.65;1.00;;;;;;;20.03;36.79;100194.19;12203359;19;20002;-80
2023/04/30 10:32:18;;;;;;;1.67;0.90;;;;;;;20.04;37.61;100184.66;12216666;19;20028;-80
2023/04/30 10:36:29;;;;;;;2.33;0.98;;;;;;;19.89;36.99;100176.50;12219697;19;20007;-81
2023/04/30 10:40:37;;;;;;;2.67;1.00;;;;;;;20.12;37.98;100173.94;12199072;19;20000;-81
2023/04/30 10:44:42;;;;;;;1.42;0.88;;;;;;;20.24;35.29;100172.31;12219073;19;20443;-78
2023/04/30 10:48:47;;;;;;;1.02;0.80;;;;;;;20.52;36.19;100160.38;12218504;19;20463;-81
2023/04/30 10:53:02;;;;;;;;;;;;;;;20.64;37.28;100164.38;12197957;19;20002;-81
2023/04/30 10:57:12;;;;;;;2.08;0.80;;;;;;;20.73;36.53;100163.66;12213176;19;19910;-80
2023/04/30 11:01:16;;;;;;;1.67;1.00;;;;;;;20.78;36.42;100161.59;12187412;19;20014;-80
2023/04/30 11:05:18;;;;;;;1.40;0.90;;;;;;;20.72;34.39;100137.63;12215292;19;20030;-79
2023/04/30 11:09:35;;;;;;;2.28;0.70;;;;;;;20.44;36.36;100140.34;12212673;19;20715;-80
2023/04/30 11:13:45;;;;;;;2.00;1.08;;;;;;;20.71;36.43;100148.00;12191665;19;20018;-80
2023/04/30 11:17:49;;;;;;;1.60;1.10;;;;;;;20.84;35.47;100140.72;12216809;19;20003;-78
2023/04/30 11:22:04;;;;;;;0.73;0.70;;;;;;;20.74;35.73;100132.53;12212161;19;20010;-79
2023/04/30 11:26:06;;;;;;;2.83;0.98;;;;;;;21.03;36.50;100134.19;12195073;19;20010;-80
2023/04/30 11:30:12;;;;;;;3.15;0.90;;;;;;;21.44;35.37;100136.16;12212335;19;20098;-77
2023/04/30 11:34:14;;;;;;;2.67;0.80;;;;;;;21.68;34.04;100125.50;12185160;19;20014;-81
2023/04/30 11:38:17;;;;;;;1.42;0.70;;;;;;;21.99;33.99;100119.16;12207306;19;20338;-81
2023/04/30 11:42:20;;;;;;;1.08;0.80;;;;;;;22.52;33.70;100119.19;12204552;19;20010;-84
2023/04/30 11:46:22;;;;;;;1.63;0.80;;;;;;;23.37;32.81;100115.38;12192968;19;20011;-80
2023/04/30 11:50:27;;;;;;;0.93;0.77;;;;;;;23.92;32.19;100119.59;12218752;19;20423;-82
2023/04/30 11:59:11;;;;;;;1.58;1.00;;;;;;;24.87;29.97;100102.47;12172358;19;20018;-83
2023/04/30 12:03:14;;;;;;;1.52;0.80;;;;;;;25.43;29.33;100106.00;12207088;19;20015;-82
2023/04/30 12:07:16;;;;;;;2.58;0.98;;;;;;;25.75;28.12;100083.81;12188496;19;20021;-77
2023/04/30 12:11:20;;;;;;;0.85;0.70;;;;;;;25.43;28.33;100086.25;12210677;19;20091;-80
2023/04/30 12:15:27;;;;;;;1.08;0.65;;;;;;;25.32;28.78;100084.19;12206738;19;20034;-79
2023/04/30 12:24:10;;;;;;;2.17;0.80;;;;;;;24.01;30.39;100087.47;12197416;19;20010;-81
2023/04/30 12:28:13;;;;;;;1.92;0.80;;;;;;;25.30;28.96;100081.69;12215892;19;20014;-80
2023/04/30 12:32:19;;;;;;;1.30;0.95;;;;;;;25.73;28.73;100077.72;12212554;19;20006;-81
2023/04/30 12:36:31;;;;;;;2.35;1.15;;;;;;;26.65;28.15;100072.97;12203872;19;20118;-79
2023/04/30 12:40:33;;;;;;;1.75;0.70;;;;;;;27.50;25.71;100072.13;12181593;19;20054;-81
2023/04/30 12:44:43;;;;;;;1.95;0.77;;;;;;;27.50;24.75;100070.09;12202588;19;20011;-80
2023/04/30 12:53:15;;;;;;;2.85;0.80;;;;;;;28.58;24.98;100051.31;12160974;19;20040;-82
2023/04/30 12:57:17;;;;;;;1.98;1.00;;;;;;;27.86;24.75;100051.38;12199511;19;20007;-83
2023/04/30 13:01:24;;;;;;;1.23;0.73;;;;;;;27.17;26.29;100060.97;12182389;19;20355;-82
2023/04/30 13:05:26;;;;;;;0.73;0.60;;;;;;;27.17;25.20;100033.50;12199462;19;20015;-82
2023/04/30 13:09:27;;;;;;;;;;;;;;;27.60;25.62;100031.16;12206443;19;20014;-81
2023/04/30 13:13:29;;;;;;;1.48;0.98;;;;;;;27.72;24.95;100033.94;12181104;19;20595;-82
2023/04/30 13:17:31;;;;;;;3.28;1.10;;;;;;;27.08;25.33;100040.47;12203923;19;20010;-81
2023/04/30 13:21:33;;;;;;;3.10;1.10;;;;;;;28.12;24.63;100011.22;12213742;19;20013;-81
2023/04/30 13:25:35;;;;;;;2.20;0.80;;;;;;;29.40;23.54;100015.63;12181052;19;20069;-81
2023/04/30 13:29:40;;;;;;;1.33;0.90;;;;;;;30.25;22.69;100000.69;12203852;19;20010;-83
2023/04/30 13:33:42;;;;;;;1.35;0.90;;;;;;;30.40;22.44;100014.81;12198210;19;20015;-80
2023/04/30 13:37:46;;;;;;;2.08;1.10;;;;;;;30.65;22.66;100003.03;12189259;19;20027;-83
2023/04/30 13:41:48;;;;;;;1.80;0.90;;;;;;;30.63;21.63;99999.75;12212894;19;20046;-83
2023/04/30 13:45:51;;;;;;;0.70;0.55;;;;;;;31.07;21.63;99987.84;12216811;19;20014;-83
2023/04/30 13:49:53;;;;;;;1.42;1.02;;;;;;;31.28;20.97;99985.31;12196038;19;20007;-81
2023/04/30 13:53:55;;;;;;;1.92;1.05;;;;;;;31.22;21.81;99983.19;12207413;19;20051;-81
2023/04/30 13:57:57;;;;;;;1.30;0.90;;;;;;;31.66;20.44;99982.56;12213712;19;20435;-82
2023/04/30 14:01:59;;;;;;;4.80;1.17;;;;;;;32.20;20.30;99973.41;12191287;19;20392;-82
2023/04/30 14:06:01;;;;;;;2.05;1.15;;;;;;;32.00;20.18;99969.94;12206638;19;20007;-83
2023/04/30 14:10:05;;;;;;;0.98;0.75;;;;;;;31.19;21.87;99981.94;12211574;19;20003;-81
2023/04/30 14:14:08;;;;;;;0.90;0.70;;;;;;;29.99;22.37;99982.38;12191673;19;20086;-84
2023/04/30 14:18:09;;;;;;;2.33;0.60;;;;;;;28.37;23.67;99974.22;12214750;19;20014;-83
2023/04/30 14:22:11;;;;;;;0.85;0.57;;;;;;;26.99;23.96;99973.53;12211293;19;20805;-83
2023/04/30 14:26:14;;;;;;;1.60;0.70;;;;;;;26.11;25.22;99973.03;12216315;19;20913;-82
2023/04/30 14:30:15;;;;;;;0.68;0.60;;;;;;;25.29;25.82;99972.88;12222496;19;20021;-82
2023/04/30 14:34:18;;;;;;;1.15;0.70;;;;;;;25.00;26.46;99966.09;12187488;19;20017;-82
2023/04/30 14:38:20;;;;;;;4.40;0.82;;;;;;;24.94;26.41;99961.81;12210860;19;20073;-83
2023/04/30 14:42:22;;;;;;;0.70;0.60;;;;;;;24.72;26.89;99956.53;12220547;19;20003;-85
2023/04/30 14:46:24;;;;;;;0.60;0.60;;;;;;;24.76;27.53;99960.28;12191209;19;20034;-82
2023/04/30 14:50:26;;;;;;;1.05;0.70;;;;;;;24.86;27.01;99962.69;12216617;19;20017;-82
2023/04/30 14:54:29;;;;;;;1.88;0.80;;;;;;;24.47;27.25;99952.66;12214437;19;20014;-83
2023/04/30 14:58:31;;;;;;;0.82;0.50;;;;;;;24.07;27.86;99945.38;12193522;19;19999;-81
2023/04/30 15:02:33;;;;;;;2.15;0.80;;;;;;;23.66;28.38;99935.53;12222759;19;20010;-82
2023/04/30 15:06:36;;;;;;;1.00;0.70;;;;;;;23.46;28.67;99941.03;12210111;19;20014;-84
2023/04/30 15:10:38;;;;;;;1.67;0.77;;;;;;;23.30;29.29;99932.28;12187301;19;20010;-80
2023/04/30 15:14:40;;;;;;;0.85;0.60;;;;;;;23.13;29.61;99933.13;12210579;19;20029;-82
2023/04/30 15:18:42;;;;;;;2.35;0.95;;;;;;;22.85;28.83;99929.78;12208421;19;20002;-82
2023/04/30 15:22:44;;;;;;;1.90;0.60;;;;;;;22.41;29.83;99917.66;12191091;19;20127;-82
2023/04/30 15:26:47;;;;;;;1.08;0.60;;;;;;;22.34;30.20;99917.28;12210993;19;20007;-81
2023/04/30 15:30:51;;;;;;;1.27;0.75;;;;;;;22.16;30.46;99928.44;12209796;19;20007;-80
2023/04/30 15:34:54;;;;;;;0.88;0.70;;;;;;;21.84;30.21;99924.00;12191336;19;20027;-81
2023/04/30 15:38:55;;;;;;;1.30;1.02;;;;;;;21.95;30.45;99928.19;12208057;19;20022;-81
2023/04/30 15:42:57;;;;;;;1.10;0.70;;;;;;;22.13;30.02;99917.88;12202295;19;20015;-79
2023/04/30 15:46:59;;;;;;;0.87;0.77;;;;;;;21.96;30.60;99923.41;12179635;19;20086;-82
2023/04/30 15:51:02;;;;;;;2.15;1.30;;;;;;;21.77;30.79;99910.44;12205356;19;19999;-83
2023/04/30 15:55:05;;;;;;;1.65;0.98;;;;;;;21.64;31.64;99908.56;12205963;19;20015;-82
2023/04/30 15:59:07;;;;;;;1.40;1.00;;;;;;;21.63;31.31;99904.09;12191221;19;20379;-80
2023/04/30 16:03:09;;;;;;;3.42;1.15;;;;;;;21.52;31.92;99909.16;12226220;19;20011;-80
2023/04/30 16:07:11;;;;;;;1.83;0.98;;;;;;;21.39;31.39;99908.09;12195459;19;20014;-79
2023/04/30 16:11:13;;;;;;;2.03;0.87;;;;;;;21.38;32.26;99898.00;12207237;19;20475;-79
2023/04/30 16:15:15;;;;;;;1.98;0.70;;;;;;;21.68;32.16;99900.31;12205322;19;20474;-80
2023/04/30 16:19:17;;;;;;;1.63;1.10;;;;;;;21.66;31.83;99897.84;12186516;19;20010;-79
2023/04/30 16:23:18;;;;;;;2.00;0.80;;;;;;;21.34;32.17;99893.34;12205591;19;20011;-81
2023/04/30 16:27:20;;;;;;;0.82;0.80;;;;;;;21.07;32.60;99891.50;12207138;19;20010;-81
2023/04/30 16:31:22;;;;;;;1.63;1.07;;;;;;;20.91;31.95;99879.81;12187667;19;20041;-78
2023/04/30 16:35:24;;;;;;;1.35;0.90;;;;;;;20.69;32.26;99889.84;12206520;19;20006;-80
2023/04/30 16:39:26;;;;;;;1.33;1.10;;;;;;;20.59;32.71;99878.91;12218941;19;20010;-82
2023/04/30 16:43:28;;;;;;;1.83;0.80;;;;;;;20.49;32.93;99873.50;12191775;19;20023;-83
2023/04/30 16:47:30;;;;;;;2.60;1.60;;;;;;;20.44;33.44;99871.66;12201417;19;21348;-81
2023/04/30 16:51:32;;;;;;;2.83;1.17;;;;;;;20.38;33.78;99860.91;12203767;19;20010;-84
2023/04/30 16:55:34;;;;;;;1.75;1.10;;;;;;;20.35;34.55;99859.53;12180690;19;20961;-82
2023/04/30 16:59:36;;;;;;;1.40;1.00;;;;;;;20.50;34.24;99866.78;12207865;19;20522;-82
2023/04/30 17:03:38;;;;;;;2.17;1.33;;;;;;;20.58;34.23;99866.03;12204574;19;20252;-81
2023/04/30 17:07:43;;;;;;;1.42;0.90;;;;;;;20.58;33.70;99849.22;12177237;19;20003;-81
2023/04/30 17:11:45;;;;;;;1.38;1.23;;;;;;;20.50;34.90;99852.78;12205024;19;20008;-79
2023/04/30 17:15:47;;;;;;;1.85;1.10;;;;;;;20.24;34.56;99846.91;12216579;19;20015;-80
2023/04/30 17:19:49;;;;;;;1.00;0.83;;;;;;;20.07;34.60;99853.13;12189049;19;20006;-80
2023/04/30 17:23:51;;;;;;;2.45;1.00;;;;;;;19.89;34.72;99854.09;12206859;19;20294;-81
2023/04/30 17:27:54;;;;;;;;;;;;;;;19.62;35.02;99847.31;12206378;19;20034;-81
2023/04/30 17:31:56;;;;;;;3.88;0.88;;;;;;;19.42;35.57;99864.47;12187824;19;19934;-83
2023/04/30 17:36:00;;;;;;;2.95;1.20;;;;;;;19.29;35.78;99850.16;12202306;19;20032;-82
2023/04/30 17:40:04;;;;;;;2.77;1.30;;;;;;;19.20;36.50;99853.97;12207547;19;20003;-82
2023/04/30 17:44:06;;;;;;;3.63;1.08;;;;;;;19.01;38.97;99854.84;12182154;19;20259;-83
2023/04/30 17:48:08;;;;;;;3.23;1.40;;;;;;;18.75;39.03;99862.81;12197212;19;19998;-83
2023/04/30 17:52:10;;;;;;;3.42;1.70;;;;;;;18.48;40.72;99863.47;12199637;19;20015;-84
2023/04/30 17:56:12;;;;;;;4.32;2.55;;;;;;;18.22;42.22;99861.00;12176981;19;21411;-84
2023/04/30 18:00:15;;;;;;;6.22;3.50;;;;;;;17.93;44.80;99858.31;12198367;19;20002;-83
2023/04/30 18:04:19;;;;;;;6.55;3.38;;;;;;;17.65;44.79;99862.81;12177490;19;20502;-84
2023/04/30 18:08:21;;;;;;;4.90;2.80;;;;;;;17.36;47.14;99859.22;12194363;19;20011;-83
2023/04/30 18:12:23;;;;;;;5.38;2.10;;;;;;;17.10;47.84;99859.44;12198253;19;20011;-86
2023/04/30 18:16:25;;;;;;;;;;;;;;;16.79;48.63;99856.91;12177647;19;20007;-83
2023/04/30 18:20:28;;;;;;;4.80;1.40;;;;;;;16.57;49.28;99853.72;12197146;19;19919;-86
2023/04/30 18:24:30;;;;;;;3.60;1.33;;;;;;;16.30;50.69;99856.94;12208112;19;20010;-86
2023/04/30 18:28:35;;;;;;;4.03;1.50;;;;;;;16.05;51.74;99861.50;12190823;19;20040;-85
2023/04/30 18:32:37;;;;;;;11.18;3.70;;;;;;;15.82;53.77;99860.22;12214276;19;20003;-85
2023/04/30 18:36:41;;;;;;;6.93;3.27;;;;;;;15.62;54.91;99858.31;12208862;19;20479;-84
2023/04/30 18:40:43;;;;;;;9.13;2.33;;;;;;;15.44;56.43;99864.47;12187195;19;20074;-84
2023/04/30 18:44:47;;;;;;;3.95;2.05;;;;;;;15.26;57.08;99860.34;12208461;19;20052;-83
2023/04/30 18:48:50;;;;;;;4.72;2.47;;;;;;;15.09;57.85;99873.69;12207696;19;20043;-84
2023/04/30 18:52:52;;;;;;;4.53;3.20;;;;;;;14.91;59.04;99875.06;12188253;19;20011;-85
2023/04/30 18:56:54;;;;;;;5.32;3.10;;;;;;;14.74;59.52;99867.81;12204951;19;20003;-84
2023/04/30 19:00:57;;;;;;;2.95;2.20;;;;;;;14.63;60.31;99876.41;12208451;19;20015;-84
2023/04/30 19:04:59;;;;;;;;;;;;;;;14.47;60.27;99879.13;12185367;19;20006;-83
2023/04/30 19:09:01;;;;;;;4.78;2.40;;;;;;;14.35;60.68;99886.88;12201454;19;19946;-85
2023/04/30 19:13:03;;;;;;;2.53;1.90;;;;;;;14.23;61.88;99878.78;12203267;19;20376;-84
2023/04/30 19:17:05;;;;;;;3.70;1.85;;;;;;;14.10;63.39;99885.69;12183338;19;20117;-85
2023/04/30 19:21:08;;;;;;;2.97;1.30;;;;;;;13.98;63.75;99879.53;12205571;19;20023;-85
2023/04/30 19:25:10;;;;;;;;;;;;;;;13.87;63.79;99877.81;12212435;19;20031;-84
2023/04/30 19:29:12;;;;;;;7.70;3.63;;;;;;;13.81;63.77;99884.44;12191538;19;19974;-85
2023/04/30 19:33:14;;;;;;;6.03;2.37;;;;;;;13.73;64.45;99891.31;12211290;19;20030;-83
2023/04/30 19:37:15;;;;;;;4.07;2.00;;;;;;;13.59;64.90;99885.44;12188543;19;20025;-83
2023/04/30 19:41:18;;;;;;;;;;;;;;;13.44;66.82;99888.94;12211806;19;20023;-84
2023/04/30 19:45:21;;;;;;;5.65;3.33;;;;;;;13.38;66.84;99895.53;12202875;19;19947;-84
2023/04/30 19:49:23;;;;;;;4.05;2.58;;;;;;;13.34;68.06;99896.34;12181847;19;20007;-83
2023/04/30 19:53:27;;;;;;;4.95;1.90;;;;;;;13.29;68.46;99888.81;12205569;19;20027;-84
2023/04/30 19:57:34;;;;;;;4.68;2.53;;;;;;;13.21;69.05;99900.38;12205028;19;20007;-84
2023/04/30 20:01:37;;;;;;;4.80;2.28;;;;;;;13.15;69.98;99896.72;12186232;19;20018;-85
2023/04/30 20:05:39;;;;;;;;;;;;;;;13.09;69.91;99895.03;12203527;19;20118;-84
2023/04/30 20:09:41;;;;;;;4.82;1.70;;;;;;;13.05;69.68;99901.34;12195454;19;19938;-83
2023/04/30 20:13:43;;;;;;;3.85;1.58;;;;;;;13.00;70.67;99894.69;12179516;19;20018;-82
2023/04/30 20:17:45;;;;;;;4.87;1.67;;;;;;;12.94;71.87;99895.72;12204803;19;20007;-82
2023/04/30 20:21:51;;;;;;;3.33;1.70;;;;;;;12.91;73.18;99898.16;12203282;19;20312;-84
2023/04/30 20:25:53;;;;;;;3.50;1.90;;;;;;;12.88;74.26;99907.00;12180191;19;20529;-86
2023/04/30 20:29:55;;;;;;;3.58;1.90;;;;;;;12.83;75.62;99896.72;12202420;19;20038;-84
2023/04/30 20:33:58;;;;;;;5.60;2.67;;;;;;;12.81;76.26;99896.16;12203121;19;20577;-86
2023/04/30 20:38:01;;;;;;;;;;;;;;;12.76;75.97;99885.91;12180311;19;20081;-86
2023/04/30 20:42:03;;;;;;;2.33;1.60;;;;;;;12.74;74.66;99888.06;12202480;19;19911;-84
2023/04/30 20:46:05;;;;;;;1.50;1.15;;;;;;;12.71;74.75;99888.59;12206228;19;19998;-84
2023/04/30 20:50:07;;;;;;;3.90;1.55;;;;;;;12.72;75.25;99889.44;12191219;19;20437;-87
2023/04/30 20:54:09;;;;;;;4.13;1.60;;;;;;;12.70;74.87;99900.78;12214461;19;20011;-87
2023/04/30 20:58:11;;;;;;;3.22;1.35;;;;;;;12.67;75.11;99890.25;12209470;19;20018;-88
2023/04/30 21:02:13;;;;;;;2.20;1.38;;;;;;;12.67;75.53;99883.84;12217352;19;20062;-88
2023/04/30 21:06:17;;;;;;;2.88;1.63;;;;;;;12.68;75.77;99891.91;12211054;19;20089;-84
2023/04/30 21:10:19;;;;;;;3.33;1.88;;;;;;;12.67;76.56;99894.91;12185588;19;20002;-86
2023/04/30 21:14:20;;;;;;;3.42;1.60;;;;;;;12.64;77.53;99890.75;12203173;19;20062;-87
2023/04/30 21:18:25;;;;;;;2.63;1.70;;;;;;;12.65;77.89;99892.41;12209873;19;20061;-85
2023/04/30 21:22:27;;;;;;;5.07;1.50;;;;;;;12.70;78.51;99889.72;12184888;19;20282;-87
2023/04/30 21:26:29;;;;;;;2.38;1.63;;;;;;;12.74;78.57;99887.25;12204839;19;20056;-86
2023/04/30 21:30:31;;;;;;;3.43;1.90;;;;;;;12.79;78.94;99881.78;12205934;19;20029;-85
2023/04/30 21:34:33;;;;;;;3.72;1.67;;;;;;;12.89;79.06;99881.03;12183856;19;20029;-87
2023/04/30 21:38:35;;;;;;;3.87;1.50;;;;;;;12.94;79.43;99878.31;12204007;19;20494;-88
2023/04/30 21:42:37;;;;;;;2.95;1.67;;;;;;;13.03;79.21;99882.25;12217288;19;20002;-86
2023/04/30 21:46:40;;;;;;;2.92;1.40;;;;;;;13.06;78.22;99878.97;12194929;19;20602;-85
2023/04/30 21:50:42;;;;;;;3.35;1.67;;;;;;;13.12;79.10;99877.06;12217427;19;20002;-85
2023/04/30 21:54:47;;;;;;;3.58;1.70;;;;;;;13.10;79.79;99876.50;12214002;19;20018;-86
2023/04/30 21:58:49;;;;;;;3.88;1.90;;;;;;;13.04;80.34;99880.31;12199647;19;20029;-84
2023/04/30 22:02:51;;;;;;;2.35;1.70;;;;;;;12.94;79.21;99875.53;12224563;19;20010;-86
2023/04/30 22:06:53;;;;;;;2.83;1.53;;;;;;;12.88;79.16;99874.66;12226130;19;20026;-85
2023/04/30 22:10:59;;;;;;;3.30;1.73;;;;;;;12.84;79.18;99872.69;12197127;19;19999;-87
2023/04/30 22:15:02;;;;;;;4.45;1.92;;;;;;;12.82;79.07;99869.31;12212912;19;20011;-84
2023/04/30 22:19:04;;;;;;;7.10;1.88;;;;;;;12.76;78.30;99865.72;12222896;19;20011;-87
2023/04/30 22:23:06;;;;;;;2.23;1.40;;;;;;;12.74;77.63;99865.13;12195792;19;20080;-87
2023/04/30 22:27:08;;;;;;;3.60;1.70;;;;;;;12.76;78.97;99861.00;12222370;19;20006;-87
2023/04/30 22:31:10;;;;;;;4.90;1.90;;;;;;;12.66;79.74;99857.31;12219866;19;20023;-87
2023/04/30 22:35:15;;;;;;;2.73;1.80;;;;;;;12.64;79.77;99865.03;12199315;19;20075;-86
2023/04/30 22:39:17;;;;;;;3.88;1.75;;;;;;;12.61;78.33;99854.50;12218846;19;20002;-86
2023/04/30 22:43:19;;;;;;;2.53;1.70;;;;;;;12.61;76.03;99851.72;12200702;19;20071;-84
2023/04/30 22:47:25;;;;;;;4.32;2.00;;;;;;;12.67;75.51;99850.66;12227296;19;20419;-84
2023/04/30 22:51:27;;;;;;;5.72;2.28;;;;;;;12.71;73.93;99852.66;12233324;19;20063;-86
2023/04/30 22:55:31;;;;;;;3.65;1.83;;;;;;;12.71;73.91;99841.59;12190309;19;20108;-85
2023/04/30 22:59:33;;;;;;;6.93;1.88;;;;;;;12.63;74.96;99847.59;12216833;19;20029;-87
2023/04/30 23:03:35;;;;;;;3.75;1.70;;;;;;;12.55;75.70;99848.06;12215899;19;20006;-87
2023/04/30 23:07:40;;;;;;;2.92;1.75;;;;;;;12.52;74.29;99845.84;12193453;19;20017;-85
2023/04/30 23:11:41;;;;;;;4.80;2.00;;;;;;;12.54;74.23;99846.41;12212236;19;20039;-87
2023/04/30 23:15:47;;;;;;;3.35;2.13;;;;;;;12.53;73.81;99842.00;12221157;19;20021;-85
2023/04/30 23:19:49;;;;;;;4.82;2.13;;;;;;;12.44;74.46;99838.03;12193999;19;20006;-85
2023/04/30 23:23:51;;;;;;;2.88;2.00;;;;;;;12.34;74.11;99841.50;12202582;19;20010;-85
2023/04/30 23:27:52;;;;;;;4.53;2.30;;;;;;;12.36;73.20;99838.50;12202394;19;20600;-85
2023/04/30 23:31:54;;;;;;;4.25;2.03;;;;;;;12.28;73.29;99831.50;12182693;19;20011;-84
2023/04/30 23:35:56;;;;;;;8.65;2.58;;;;;;;12.22;73.88;99833.38;12201606;19;20011;-82
2023/04/30 23:39:59;;;;;;;5.82;2.22;;;;;;;12.15;73.97;99827.22;12204223;19;20019;-84
2023/04/30 23:44:01;;;;;;;6.05;2.03;;;;;;;12.13;73.83;99823.88;12194390;19;20014;-85
2023/04/30 23:48:03;;;;;;;2.35;1.70;;;;;;;12.10;74.09;99816.13;12202209;19;20095;-85
2023/04/30 23:52:05;;;;;;;5.45;2.05;;;;;;;12.10;73.80;99813.38;12204837;19;20018;-85
2023/04/30 23:56:07;;;;;;;4.53;2.00;;;;;;;12.12;72.53;99810.34;12177592;19;19999;-83
